Time;durP1;ratioP1;P1;durP2;ratioP2;P2;SDS_P1;SDS_P2;PMS_P1;PMS_P2;Temp;Humidity;BMP_temperature;BMP_pressure;BME280_temperature;BME280_humidity;BME280_pressure;Samples;Min_cycle;Max_cycle;Signal;HPM_P1;HPM_P2
2021/01/22 00:01:47;;;;;;;5.30;3.55;;;7.90;99.90;;;;;;5087375;28;20579;-85
2021/01/22 00:04:17;;;;;;;5.13;4.70;;;7.80;99.90;;;;;;5085542;28;20214;-85
2021/01/22 00:06:44;;;;;;;5.07;4.57;;;7.80;99.90;;;;;;5080189;28;20209;-85
2021/01/22 01:15:05;;;;;;;2.90;2.63;;;8.50;99.90;;;;;;4996222;22;20198;-79
2021/01/22 01:17:32;;;;;;;2.73;2.53;;;8.60;99.90;;;;;;5080304;28;20473;-80
2021/01/22 01:19:58;;;;;;;3.03;2.70;;;8.70;99.90;;;;;;5088612;28;20985;-80
2021/01/22 01:22:24;;;;;;;3.23;2.77;;;8.80;99.90;;;;;;5091858;28;20515;-79
2021/01/22 01:24:51;;;;;;;3.00;2.80;;;8.80;99.90;;;;;;5086750;28;20442;-80
2021/01/22 01:27:17;;;;;;;2.77;2.47;;;9.00;99.90;;;;;;5088809;28;20468;-81
2021/01/22 01:29:44;;;;;;;2.50;2.10;;;9.10;99.90;;;;;;5086427;28;20450;-80
2021/01/22 01:32:11;;;;;;;2.03;1.90;;;9.10;99.90;;;;;;5090487;28;20979;-79
2021/01/22 01:34:37;;;;;;;1.90;1.80;;;9.20;99.90;;;;;;5092180;28;20468;-80
2021/01/22 01:37:04;;;;;;;1.83;1.73;;;9.20;99.90;;;;;;5091292;28;20532;-79
2021/01/22 01:39:30;;;;;;;2.40;1.53;;;9.30;99.90;;;;;;5089462;28;20458;-79
2021/01/22 01:41:56;;;;;;;1.80;1.70;;;9.30;99.90;;;;;;5087731;28;20496;-79
2021/01/22 01:44:23;;;;;;;1.63;1.53;;;9.40;99.90;;;;;;5090972;28;20411;-80
2021/01/22 01:46:49;;;;;;;1.27;1.17;;;9.40;99.90;;;;;;5086861;28;20460;-79
2021/01/22 01:49:16;;;;;;;1.27;1.17;;;9.50;99.90;;;;;;5082279;28;20448;-80
2021/01/22 01:51:43;;;;;;;1.63;1.20;;;9.50;99.90;;;;;;5082540;28;20472;-80
2021/01/22 01:54:10;;;;;;;1.30;1.20;;;9.60;99.90;;;;;;5077401;28;20460;-79
2021/01/22 01:56:37;;;;;;;1.20;1.10;;;9.70;99.90;;;;;;5079087;28;20835;-79
2021/01/22 01:59:03;;;;;;;1.17;1.10;;;9.70;99.90;;;;;;5079096;28;20449;-80
2021/01/22 02:01:30;;;;;;;0.90;0.90;;;9.80;99.90;;;;;;5080299;28;20567;-80
2021/01/22 02:03:57;;;;;;;1.20;1.10;;;9.90;99.90;;;;;;5079873;28;20953;-79
2021/01/22 02:06:24;;;;;;;1.00;1.00;;;10.00;99.90;;;;;;5078450;28;20443;-79
2021/01/22 02:08:51;;;;;;;1.80;1.17;;;10.10;99.90;;;;;;5077952;28;20448;-80
2021/01/22 02:11:17;;;;;;;1.23;1.20;;;10.20;99.90;;;;;;5081261;28;20456;-80
2021/01/22 02:13:46;;;;;;;1.23;1.13;;;10.20;99.90;;;;;;5085246;28;20456;-79
2021/01/22 02:16:13;;;;;;;1.00;1.00;;;10.20;99.90;;;;;;5085869;28;20472;-80
2021/01/22 02:18:43;;;;;;;1.57;1.13;;;10.30;99.90;;;;;;5086176;28;20493;-80
2021/01/22 02:21:21;;;;;;;1.57;0.83;;;10.30;99.90;;;;;;5089341;28;20475;-79
2021/01/22 02:23:49;;;;;;;1.20;1.10;;;10.40;99.90;;;;;;5093296;28;20430;-79
2021/01/22 02:26:51;;;;;;;1.20;1.10;;;10.40;99.90;;;;;;5095671;28;20464;-80
2021/01/22 02:29:19;;;;;;;1.20;1.00;;;10.40;99.90;;;;;;5095309;28;20428;-80
2021/01/22 02:31:47;;;;;;;2.23;0.80;;;10.30;99.90;;;;;;5089218;28;20445;-78
2021/01/22 02:34:16;;;;;;;1.20;1.10;;;10.40;99.90;;;;;;5091450;28;20436;-78
2021/01/22 02:36:46;;;;;;;1.00;0.90;;;10.40;99.90;;;;;;5096508;28;20471;-79
2021/01/22 02:39:14;;;;;;;0.90;0.90;;;10.50;99.90;;;;;;5086523;28;20496;-78
2021/01/22 02:41:44;;;;;;;1.37;0.93;;;10.50;99.90;;;;;;5087490;28;20488;-78
2021/01/22 02:44:11;;;;;;;2.47;1.00;;;10.40;99.90;;;;;;5091398;28;20456;-79
2021/01/22 02:46:39;;;;;;;1.07;1.00;;;10.50;99.90;;;;;;5093106;28;20547;-79
2021/01/22 02:49:05;;;;;;;0.90;0.90;;;10.40;99.90;;;;;;5094213;28;20519;-79
2021/01/22 02:51:32;;;;;;;1.10;1.00;;;10.40;99.90;;;;;;5088497;28;20527;-79
2021/01/22 02:53:58;;;;;;;0.90;0.90;;;10.50;99.90;;;;;;5088340;28;20990;-80
2021/01/22 02:56:49;;;;;;;1.03;0.90;;;10.40;99.90;;;;;;5087647;28;20505;-80
2021/01/22 02:59:27;;;;;;;0.70;0.70;;;10.50;99.90;;;;;;5087642;28;20491;-81
2021/01/22 03:02:04;;;;;;;0.80;0.80;;;10.40;99.90;;;;;;5086879;28;20844;-80
2021/01/22 03:04:31;;;;;;;2.27;1.00;;;10.40;99.90;;;;;;5086474;28;20414;-80
2021/01/22 03:06:59;;;;;;;2.40;1.00;;;10.40;99.90;;;;;;5090077;28;20471;-80
2021/01/22 03:09:27;;;;;;;0.90;0.90;;;10.30;99.90;;;;;;5088108;28;20448;-80
2021/01/22 03:11:55;;;;;;;1.30;1.20;;;10.30;99.90;;;;;;5086784;28;20453;-80
2021/01/22 03:14:23;;;;;;;1.33;1.20;;;10.20;99.90;;;;;;5088675;28;20444;-80
2021/01/22 03:16:51;;;;;;;0.90;0.90;;;10.20;99.90;;;;;;5090443;28;20573;-80
2021/01/22 03:19:18;;;;;;;2.50;1.17;;;10.20;99.90;;;;;;5088610;28;20444;-80
2021/01/22 03:21:44;;;;;;;0.87;0.87;;;10.20;99.90;;;;;;5093137;28;20480;-80
2021/01/22 03:24:11;;;;;;;1.70;1.00;;;10.20;99.90;;;;;;5090708;28;20440;-79
2021/01/22 03:26:37;;;;;;;1.17;1.10;;;10.20;99.90;;;;;;5087134;28;20460;-79
2021/01/22 03:29:04;;;;;;;0.90;0.90;;;10.20;99.90;;;;;;5088841;28;20542;-79
2021/01/22 03:31:30;;;;;;;1.07;1.00;;;10.20;99.90;;;;;;5091900;28;20453;-79
2021/01/22 03:33:56;;;;;;;1.53;1.00;;;10.20;99.90;;;;;;5089563;28;20450;-80
2021/01/22 03:36:24;;;;;;;0.83;0.83;;;10.20;99.90;;;;;;5091338;28;20508;-79
2021/01/22 03:38:50;;;;;;;2.37;1.00;;;10.20;99.90;;;;;;5088676;28;20459;-79
2021/01/22 03:41:17;;;;;;;0.90;0.90;;;10.10;99.90;;;;;;5089513;28;20511;-79
2021/01/22 03:43:43;;;;;;;0.90;0.90;;;10.20;99.90;;;;;;5091955;28;20504;-79
2021/01/22 03:46:09;;;;;;;1.10;1.00;;;10.20;99.90;;;;;;5088764;28;20770;-80
2021/01/22 03:48:36;;;;;;;0.80;0.80;;;10.20;99.90;;;;;;5089065;28;20524;-80
2021/01/22 03:51:02;;;;;;;1.17;1.03;;;10.20;99.90;;;;;;5084052;28;20535;-80
2021/01/22 03:53:29;;;;;;;0.80;0.80;;;10.20;99.90;;;;;;5089166;28;20451;-80
2021/01/22 03:55:56;;;;;;;1.47;1.00;;;10.20;99.90;;;;;;5090776;28;20468;-80
2021/01/22 03:58:22;;;;;;;2.13;1.23;;;10.20;99.90;;;;;;5092188;28;20444;-80
2021/01/22 04:00:48;;;;;;;0.90;0.90;;;10.20;99.90;;;;;;5091893;28;20455;-79
2021/01/22 04:03:15;;;;;;;0.80;0.80;;;10.30;99.90;;;;;;5092024;28;20532;-79
2021/01/22 04:05:41;;;;;;;0.90;0.90;;;10.30;99.90;;;;;;5091162;28;20522;-79
2021/01/22 04:08:07;;;;;;;1.43;0.90;;;10.20;99.90;;;;;;5089573;28;20472;-78
2021/01/22 04:10:35;;;;;;;0.90;0.90;;;10.30;99.90;;;;;;5088028;28;20427;-79
2021/01/22 04:13:01;;;;;;;1.00;0.90;;;10.30;99.90;;;;;;5090803;28;20435;-78
2021/01/22 04:15:28;;;;;;;1.23;0.93;;;10.30;99.90;;;;;;5091222;28;20317;-79
2021/01/22 04:17:55;;;;;;;1.37;0.83;;;10.30;99.90;;;;;;5089049;28;20423;-80
2021/01/22 04:20:21;;;;;;;1.20;0.90;;;10.30;99.90;;;;;;5088044;28;20528;-79
2021/01/22 04:22:51;;;;;;;1.33;1.23;;;10.30;99.90;;;;;;5089613;28;20499;-80
2021/01/22 04:25:19;;;;;;;0.93;0.90;;;10.30;99.90;;;;;;5085366;28;20504;-80
2021/01/22 04:27:46;;;;;;;0.90;0.90;;;10.30;99.90;;;;;;5088990;28;20449;-79
2021/01/22 04:30:13;;;;;;;1.30;1.20;;;10.30;99.90;;;;;;5086021;28;20527;-79
2021/01/22 04:32:40;;;;;;;1.30;1.10;;;10.30;99.90;;;;;;5082878;28;20440;-80
2021/01/22 04:35:11;;;;;;;1.00;0.83;;;10.30;99.90;;;;;;5082421;28;20795;-80
2021/01/22 04:37:38;;;;;;;1.80;0.90;;;10.20;99.90;;;;;;5083492;28;20456;-80
2021/01/22 04:40:05;;;;;;;1.20;1.10;;;10.20;99.90;;;;;;5082099;28;20448;-80
2021/01/22 04:42:31;;;;;;;1.00;0.75;;;10.20;99.90;;;;;;5079006;28;20454;-80
2021/01/22 04:44:59;;;;;;;1.03;0.90;;;10.20;99.90;;;;;;5080832;28;20269;-79
2021/01/22 04:47:25;;;;;;;1.23;0.70;;;10.10;99.90;;;;;;5080082;28;20459;-80
2021/01/22 04:49:53;;;;;;;1.33;1.10;;;9.90;99.90;;;;;;5079939;28;20281;-79
2021/01/22 04:52:21;;;;;;;1.10;1.10;;;9.90;99.90;;;;;;5077964;28;20865;-79
2021/01/22 04:54:48;;;;;;;1.53;1.43;;;9.90;99.90;;;;;;5079975;28;20419;-80
2021/01/22 04:57:16;;;;;;;1.37;1.20;;;10.00;99.90;;;;;;5079095;28;20503;-80
2021/01/22 04:59:49;;;;;;;1.30;1.20;;;9.90;99.90;;;;;;5077127;28;20475;-79
2021/01/22 05:02:18;;;;;;;1.00;1.00;;;9.90;99.90;;;;;;5077679;28;20471;-80
2021/01/22 05:04:44;;;;;;;1.33;1.20;;;9.90;99.90;;;;;;5079024;28;20505;-79
2021/01/22 05:07:11;;;;;;;1.03;1.03;;;9.80;99.90;;;;;;5077303;28;20468;-79
2021/01/22 05:09:38;;;;;;;1.50;1.40;;;9.80;99.90;;;;;;5078852;28;20464;-79
2021/01/22 05:12:05;;;;;;;1.30;1.20;;;9.80;99.90;;;;;;5079868;28;20531;-80
2021/01/22 05:14:33;;;;;;;1.67;1.30;;;9.80;99.90;;;;;;5077832;28;20451;-79
2021/01/22 05:17:00;;;;;;;2.13;1.60;;;9.80;99.90;;;;;;5077721;28;20849;-79
2021/01/22 05:19:28;;;;;;;1.13;1.03;;;9.80;99.90;;;;;;5077652;28;20486;-80
2021/01/22 05:21:54;;;;;;;1.93;1.30;;;9.80;99.90;;;;;;5076830;28;20502;-79
2021/01/22 05:24:22;;;;;;;1.10;1.00;;;9.80;99.90;;;;;;5076728;28;20821;-79
2021/01/22 05:26:58;;;;;;;1.85;1.15;;;9.70;99.90;;;;;;5074150;28;20470;-79
2021/01/22 05:29:25;;;;;;;1.60;1.50;;;9.90;99.90;;;;;;5077191;28;20586;-80
2021/01/22 05:31:51;;;;;;;1.10;1.00;;;10.00;99.90;;;;;;5077468;28;20470;-80
2021/01/22 05:34:17;;;;;;;1.20;1.10;;;9.90;99.90;;;;;;5077372;28;20475;-80
2021/01/22 05:36:47;;;;;;;2.03;1.23;;;9.80;99.90;;;;;;5076123;28;20988;-79
2021/01/22 05:39:20;;;;;;;2.30;1.20;;;9.70;99.90;;;;;;5074774;28;20419;-79
2021/01/22 05:41:54;;;;;;;1.67;1.07;;;9.70;99.90;;;;;;5078962;28;20472;-79
2021/01/22 05:44:25;;;;;;;1.03;0.90;;;9.70;99.90;;;;;;5084194;28;20853;-79
2021/01/22 05:47:05;;;;;;;1.70;1.10;;;9.60;99.90;;;;;;5081140;28;20495;-79
2021/01/22 05:49:32;;;;;;;1.10;1.00;;;9.60;99.90;;;;;;5083426;28;20419;-79
2021/01/22 05:52:00;;;;;;;2.20;1.23;;;9.50;99.90;;;;;;5082864;28;20423;-79
2021/01/22 05:54:36;;;;;;;2.40;1.10;;;9.50;99.90;;;;;;5087232;28;20432;-79
2021/01/22 05:57:03;;;;;;;1.00;1.00;;;9.50;99.90;;;;;;5097454;28;20976;-78
2021/01/22 05:59:30;;;;;;;1.17;1.07;;;9.60;99.90;;;;;;5096994;28;20451;-78
2021/01/22 06:01:56;;;;;;;2.10;1.43;;;9.60;99.90;;;;;;5096279;28;20486;-78
2021/01/22 06:04:22;;;;;;;1.30;1.20;;;9.60;99.90;;;;;;5096844;28;20475;-79
2021/01/22 06:06:50;;;;;;;1.40;1.30;;;9.60;99.90;;;;;;5083403;28;20496;-79
2021/01/22 06:09:33;;;;;;;1.20;1.10;;;9.60;99.90;;;;;;5079988;28;20429;-80
2021/01/22 06:12:02;;;;;;;1.23;0.90;;;9.60;99.90;;;;;;5082106;28;20408;-79
2021/01/22 06:14:34;;;;;;;4.50;1.87;;;9.60;99.90;;;;;;5080958;28;20947;-80
2021/01/22 06:17:06;;;;;;;1.20;1.10;;;9.70;99.90;;;;;;5080976;28;20472;-79
2021/01/22 06:19:37;;;;;;;1.23;1.00;;;9.70;99.90;;;;;;5082767;28;20454;-79
2021/01/22 06:22:08;;;;;;;1.53;1.23;;;9.70;99.90;;;;;;5083160;28;20447;-79
2021/01/22 06:24:37;;;;;;;1.67;1.20;;;9.70;99.90;;;;;;5080825;28;20983;-79
2021/01/22 06:27:06;;;;;;;1.17;1.07;;;9.60;99.90;;;;;;5080246;28;20994;-79
2021/01/22 06:29:34;;;;;;;2.40;1.40;;;9.70;99.90;;;;;;5081978;28;20473;-80
2021/01/22 06:32:02;;;;;;;1.40;1.30;;;9.60;99.90;;;;;;5080952;28;20819;-80
2021/01/22 06:34:33;;;;;;;1.83;1.40;;;9.70;99.90;;;;;;5080516;28;20483;-79
2021/01/22 06:37:01;;;;;;;2.10;1.80;;;9.60;99.90;;;;;;5081760;28;20982;-80
2021/01/22 06:39:28;;;;;;;1.60;1.40;;;9.60;99.90;;;;;;5082891;28;20415;-80
2021/01/22 06:42:00;;;;;;;2.70;1.40;;;9.60;99.90;;;;;;5078242;28;20474;-79
2021/01/22 06:44:26;;;;;;;1.40;1.23;;;9.70;99.90;;;;;;5081921;28;20429;-79
2021/01/22 06:46:52;;;;;;;1.50;1.40;;;9.60;99.90;;;;;;5081037;28;20439;-78
2021/01/22 06:49:31;;;;;;;2.07;1.50;;;9.60;99.90;;;;;;5084310;28;20493;-79
2021/01/22 06:52:10;;;;;;;1.40;1.30;;;9.70;99.90;;;;;;5084710;28;20500;-80
2021/01/22 06:55:00;;;;;;;2.40;1.30;;;9.70;99.90;;;;;;5081017;28;20384;-80
2021/01/22 06:57:28;;;;;;;1.43;1.30;;;9.70;99.90;;;;;;5080135;28;20499;-79
2021/01/22 06:59:54;;;;;;;3.90;1.27;;;9.70;99.90;;;;;;5078768;28;20434;-79
2021/01/22 07:02:39;;;;;;;2.40;1.47;;;9.70;99.90;;;;;;5080193;28;20520;-79
2021/01/22 07:05:35;;;;;;;1.27;1.10;;;9.70;99.90;;;;;;5080127;28;20451;-81
2021/01/22 07:08:02;;;;;;;1.30;1.20;;;9.70;99.90;;;;;;5076375;28;20456;-79
2021/01/22 07:11:06;;;;;;;2.87;1.50;;;9.70;99.90;;;;;;5079680;28;20471;-79
2021/01/22 07:13:38;;;;;;;2.40;1.60;;;9.70;99.90;;;;;;5074572;28;20464;-80
2021/01/22 07:16:09;;;;;;;2.90;1.67;;;9.70;99.90;;;;;;5101610;22;20959;-81
2021/01/22 07:18:43;;;;;;;1.53;1.43;;;9.70;99.90;;;;;;5080777;28;20444;-81
2021/01/22 07:21:30;;;;;;;2.30;1.40;;;9.70;99.90;;;;;;5080483;28;20496;-81
2021/01/22 07:23:58;;;;;;;1.40;1.13;;;9.80;99.90;;;;;;5048296;28;20429;-81
2021/01/22 07:26:33;;;;;;;1.50;1.40;;;9.80;99.90;;;;;;5084479;28;20482;-83
2021/01/22 07:29:13;;;;;;;3.17;1.90;;;9.90;99.90;;;;;;5083732;28;20455;-81
2021/01/22 07:31:55;;;;;;;2.27;1.60;;;9.90;99.90;;;;;;5083784;28;20441;-83
2021/01/22 07:34:48;;;;;;;1.63;1.47;;;9.90;99.90;;;;;;5094496;28;20409;-82
2021/01/22 07:37:17;;;;;;;1.37;1.27;;;9.90;99.90;;;;;;5091626;28;20516;-81
2021/01/22 07:39:44;;;;;;;1.50;1.40;;;9.90;99.90;;;;;;5083038;28;20423;-83
2021/01/22 07:42:12;;;;;;;1.60;1.50;;;10.00;99.90;;;;;;5082777;28;20480;-81
2021/01/22 07:44:41;;;;;;;4.07;1.50;;;10.00;99.90;;;;;;5083478;28;20540;-81
2021/01/22 07:47:09;;;;;;;1.73;1.63;;;10.00;99.90;;;;;;5084229;28;20513;-81
2021/01/22 07:49:35;;;;;;;1.63;1.40;;;10.10;99.90;;;;;;5082905;28;20471;-82
2021/01/22 07:52:03;;;;;;;1.53;1.40;;;10.10;99.90;;;;;;5083704;28;20440;-81
2021/01/22 07:54:40;;;;;;;5.17;1.60;;;10.20;99.90;;;;;;5083028;28;20452;-82
2021/01/22 07:57:14;;;;;;;1.93;1.50;;;10.20;99.90;;;;;;5083228;28;20468;-82
2021/01/22 07:59:42;;;;;;;1.97;1.70;;;10.30;99.90;;;;;;5079829;28;20429;-82
2021/01/22 08:02:13;;;;;;;1.70;1.60;;;10.30;99.90;;;;;;5079722;28;21008;-82
2021/01/22 08:04:39;;;;;;;3.07;2.20;;;10.30;99.90;;;;;;5078168;28;21006;-81
2021/01/22 08:07:05;;;;;;;4.53;1.80;;;10.40;99.90;;;;;;5078199;28;20456;-82
2021/01/22 08:09:32;;;;;;;5.73;1.70;;;10.40;99.90;;;;;;5079150;28;20452;-82
2021/01/22 08:12:07;;;;;;;3.30;1.60;;;10.40;99.90;;;;;;5078867;28;20440;-82
2021/01/22 08:14:34;;;;;;;2.00;1.80;;;10.40;99.90;;;;;;5079004;28;20403;-82
2021/01/22 08:17:04;;;;;;;2.37;1.30;;;10.40;99.90;;;;;;5078652;28;21044;-81
2021/01/22 08:19:32;;;;;;;1.70;1.60;;;10.50;99.90;;;;;;5080500;28;20429;-82
2021/01/22 08:21:59;;;;;;;3.23;1.97;;;10.50;99.90;;;;;;5079095;28;20465;-81
2021/01/22 08:24:26;;;;;;;3.30;1.60;;;10.50;99.90;;;;;;5079499;28;20519;-82
2021/01/22 08:27:00;;;;;;;3.90;1.80;;;10.50;99.90;;;;;;5082784;28;20463;-80
2021/01/22 08:29:28;;;;;;;2.40;1.50;;;10.50;99.90;;;;;;5087637;28;20507;-82
2021/01/22 08:31:55;;;;;;;1.90;1.70;;;10.50;99.90;;;;;;5080183;28;20417;-82
2021/01/22 08:34:23;;;;;;;2.87;1.70;;;10.60;99.90;;;;;;5079939;28;20507;-82
2021/01/22 08:36:51;;;;;;;4.50;1.50;;;10.70;99.90;;;;;;5081548;28;20460;-83
2021/01/22 08:39:18;;;;;;;1.80;1.70;;;10.70;99.90;;;;;;5081211;28;20502;-81
2021/01/22 08:41:45;;;;;;;1.70;1.60;;;10.90;99.90;;;;;;5079032;28;20520;-83
2021/01/22 08:44:11;;;;;;;2.80;1.70;;;10.80;99.90;;;;;;5077890;28;20463;-83
2021/01/22 08:46:46;;;;;;;3.53;2.00;;;10.70;99.90;;;;;;5083727;28;20513;-83
2021/01/22 08:49:13;;;;;;;2.30;2.03;;;10.70;99.90;;;;;;5082230;28;20428;-83
2021/01/22 08:51:40;;;;;;;2.63;1.57;;;10.60;99.90;;;;;;5081262;28;20524;-81
2021/01/22 08:54:07;;;;;;;2.00;1.90;;;10.70;99.90;;;;;;5081776;28;20827;-79
2021/01/22 08:56:34;;;;;;;1.20;1.10;;;10.60;99.90;;;;;;5084091;28;20461;-84
2021/01/22 08:59:09;;;;;;;1.50;0.90;;;10.00;99.90;;;;;;5087843;28;20472;-83
2021/01/22 09:01:49;;;;;;;1.47;0.90;;;9.00;99.90;;;;;;5085390;28;20453;-81
2021/01/22 09:04:24;;;;;;;1.10;1.00;;;8.40;99.90;;;;;;5080241;28;20505;-82
2021/01/22 09:06:53;;;;;;;1.70;1.08;;;8.20;99.90;;;;;;5078563;28;20308;-81
2021/01/22 09:09:46;;;;;;;0.80;0.80;;;7.90;99.90;;;;;;5077542;28;20631;-81
2021/01/22 09:12:17;;;;;;;3.80;1.00;;;7.80;99.90;;;;;;5056915;28;20202;-80
2021/01/22 09:14:56;;;;;;;0.80;0.80;;;7.80;99.90;;;;;;5077650;28;20222;-80
2021/01/22 09:17:38;;;;;;;2.30;1.05;;;7.70;99.90;;;;;;5078320;28;20725;-79
2021/01/22 09:20:14;;;;;;;1.40;1.30;;;7.70;99.90;;;;;;5082791;28;20253;-82
2021/01/22 09:22:43;;;;;;;1.00;0.90;;;7.70;99.90;;;;;;5081498;28;20273;-81
2021/01/22 09:25:11;;;;;;;1.42;1.33;;;7.60;99.90;;;;;;5083475;28;20231;-81
2021/01/22 09:27:39;;;;;;;1.27;1.05;;;7.60;99.90;;;;;;5082371;28;20664;-81
2021/01/22 09:30:07;;;;;;;1.13;1.00;;;7.60;99.90;;;;;;5082117;28;20285;-80
2021/01/22 09:32:33;;;;;;;1.45;0.88;;;7.60;99.90;;;;;;5079518;28;20572;-83
2021/01/22 09:35:00;;;;;;;2.97;1.15;;;7.60;99.90;;;;;;5080838;28;20209;-81
2021/01/22 09:37:26;;;;;;;1.42;1.30;;;7.50;99.90;;;;;;5085570;28;20229;-82
2021/01/22 09:39:54;;;;;;;1.40;1.30;;;7.60;99.90;;;;;;5086496;28;20265;-81
2021/01/22 09:42:20;;;;;;;1.35;1.10;;;7.60;99.90;;;;;;5076704;28;20217;-81
2021/01/22 09:44:46;;;;;;;2.53;1.00;;;7.60;99.90;;;;;;5077279;28;20559;-80
2021/01/22 09:47:13;;;;;;;1.63;1.17;;;7.50;99.90;;;;;;5076983;28;20718;-79
2021/01/22 09:49:39;;;;;;;2.50;1.20;;;7.50;99.90;;;;;;5085194;28;20285;-82
2021/01/22 09:52:05;;;;;;;1.55;1.40;;;7.50;99.90;;;;;;5080426;28;20202;-82
2021/01/22 09:54:33;;;;;;;3.05;1.80;;;7.50;99.90;;;;;;5081651;28;20248;-82
2021/01/22 09:57:00;;;;;;;1.40;1.30;;;7.50;99.90;;;;;;5082122;28;20222;-82
2021/01/22 09:59:30;;;;;;;1.25;1.15;;;7.60;99.90;;;;;;5085621;28;20213;-82
2021/01/22 10:01:56;;;;;;;1.55;1.45;;;7.60;99.90;;;;;;5078432;28;20223;-80
2021/01/22 10:04:25;;;;;;;3.75;1.65;;;7.70;99.90;;;;;;5078886;28;20206;-83
2021/01/22 10:06:51;;;;;;;1.50;1.40;;;7.70;99.90;;;;;;5079319;28;20222;-81
2021/01/22 10:09:18;;;;;;;1.40;1.30;;;7.70;99.90;;;;;;5078182;28;20206;-83
2021/01/22 10:11:44;;;;;;;1.30;1.20;;;7.70;99.90;;;;;;5078746;28;20613;-81
2021/01/22 10:14:11;;;;;;;3.08;2.78;;;7.70;99.90;;;;;;5083839;28;20298;-83
2021/01/22 10:16:37;;;;;;;3.92;3.22;;;7.80;99.90;;;;;;5027909;28;20234;-83
2021/01/22 10:19:07;;;;;;;3.47;2.65;;;7.80;99.90;;;;;;5078874;28;20202;-83
2021/01/22 10:21:33;;;;;;;2.05;1.85;;;7.80;99.90;;;;;;5078795;28;20229;-82
2021/01/22 10:24:00;;;;;;;3.33;3.00;;;7.80;99.90;;;;;;5079154;28;20647;-82
2021/01/22 10:26:26;;;;;;;2.83;2.00;;;7.90;99.90;;;;;;5081313;28;20246;-83
2021/01/22 10:28:54;;;;;;;2.15;1.98;;;7.80;99.90;;;;;;5080060;28;20611;-84
2021/01/22 10:31:21;;;;;;;3.42;1.40;;;7.90;99.90;;;;;;5078395;28;20198;-84
2021/01/22 10:33:48;;;;;;;12.50;2.75;;;7.90;99.90;;;;;;5079533;28;20198;-84
2021/01/22 10:36:16;;;;;;;3.42;2.25;;;7.80;99.90;;;;;;5080165;28;20407;-81
2021/01/22 10:38:43;;;;;;;1.70;1.60;;;7.90;99.90;;;;;;5088078;28;20270;-79
2021/01/22 10:41:10;;;;;;;2.05;1.95;;;7.90;99.90;;;;;;5095261;28;20213;-79
2021/01/22 10:43:36;;;;;;;1.95;1.27;;;7.90;99.90;;;;;;5095426;28;20250;-82
2021/01/22 10:46:03;;;;;;;1.88;1.63;;;7.80;99.90;;;;;;5087592;28;20227;-83
2021/01/22 10:48:30;;;;;;;4.07;1.20;;;7.90;99.90;;;;;;5080952;28;20202;-83
2021/01/22 10:50:57;;;;;;;1.40;1.30;;;7.80;99.90;;;;;;5081667;28;20251;-83
2021/01/22 10:53:27;;;;;;;1.05;0.95;;;7.80;99.90;;;;;;5082450;28;20298;-82
2021/01/22 10:55:53;;;;;;;1.33;1.17;;;7.80;99.90;;;;;;5082733;28;20575;-83
2021/01/22 10:58:20;;;;;;;1.85;1.60;;;7.80;99.90;;;;;;5082029;28;20698;-82
2021/01/22 11:00:47;;;;;;;4.47;2.60;;;7.80;99.90;;;;;;5081038;28;20309;-81
2021/01/22 11:03:13;;;;;;;2.23;1.30;;;7.80;99.90;;;;;;5081928;28;20214;-83
2021/01/22 11:05:41;;;;;;;4.63;1.52;;;8.10;99.90;;;;;;5080979;28;20518;-82
2021/01/22 11:08:08;;;;;;;5.60;2.60;;;8.00;99.90;;;;;;5081627;28;20202;-80
2021/01/22 11:10:34;;;;;;;2.77;1.30;;;8.00;99.90;;;;;;5084390;28;20224;-83
2021/01/22 11:13:02;;;;;;;1.50;1.38;;;8.00;99.90;;;;;;5086488;28;20532;-81
2021/01/22 11:15:29;;;;;;;4.15;2.55;;;8.10;99.90;;;;;;5088152;28;20221;-81
2021/01/22 11:17:56;;;;;;;3.37;1.53;;;8.20;99.90;;;;;;5087707;28;20186;-82
2021/01/22 11:20:23;;;;;;;1.40;1.30;;;8.30;99.90;;;;;;5089473;28;20478;-83
2021/01/22 11:22:50;;;;;;;2.50;1.87;;;8.30;99.90;;;;;;5084898;28;20483;-82
2021/01/22 11:25:17;;;;;;;2.90;2.37;;;8.50;99.90;;;;;;5091308;28;20508;-82
2021/01/22 11:27:44;;;;;;;3.17;1.97;;;8.40;99.90;;;;;;5089602;28;20452;-82
2021/01/22 11:30:12;;;;;;;1.33;1.23;;;8.50;99.90;;;;;;5087663;28;20459;-81
2021/01/22 11:32:38;;;;;;;3.20;1.33;;;8.40;99.90;;;;;;5083155;28;20903;-83
2021/01/22 11:35:08;;;;;;;1.43;1.33;;;8.90;99.90;;;;;;5080637;28;20452;-81
2021/01/22 11:37:36;;;;;;;2.03;1.83;;;8.90;99.90;;;;;;5079833;28;20473;-81
2021/01/22 11:40:04;;;;;;;1.75;1.38;;;8.50;99.90;;;;;;5079428;28;20441;-81
2021/01/22 11:42:31;;;;;;;3.13;1.60;;;8.50;99.90;;;;;;5079581;28;20564;-81
2021/01/22 11:44:57;;;;;;;3.80;1.40;;;8.20;99.90;;;;;;5078985;28;20463;-80
2021/01/22 11:47:23;;;;;;;1.50;1.40;;;8.00;99.90;;;;;;5079568;28;20501;-81
2021/01/22 11:49:50;;;;;;;0.90;0.90;;;7.90;99.90;;;;;;5079376;28;20293;-82
2021/01/22 11:52:16;;;;;;;1.52;1.42;;;8.30;99.90;;;;;;5078845;28;20203;-82
2021/01/22 11:54:44;;;;;;;1.50;1.40;;;8.60;99.90;;;;;;5078986;28;20316;-82
2021/01/22 11:57:11;;;;;;;1.60;1.50;;;8.30;99.90;;;;;;5078332;28;20473;-81
2021/01/22 11:59:37;;;;;;;1.55;1.40;;;8.60;99.90;;;;;;5078337;28;20293;-82
2021/01/22 12:02:04;;;;;;;1.33;1.23;;;9.10;99.90;;;;;;5079602;28;20324;-82
2021/01/22 12:04:30;;;;;;;1.60;1.50;;;8.90;99.90;;;;;;5079599;28;20444;-82
2021/01/22 12:06:56;;;;;;;1.70;1.40;;;8.70;99.90;;;;;;5079962;28;20528;-83
2021/01/22 12:09:23;;;;;;;2.03;1.20;;;8.30;99.90;;;;;;5077713;28;20528;-82
2021/01/22 12:11:51;;;;;;;1.67;1.00;;;8.00;99.90;;;;;;5081962;28;20445;-81
2021/01/22 12:14:18;;;;;;;1.23;1.08;;;7.80;99.90;;;;;;5085928;28;20482;-80
2021/01/22 12:16:45;;;;;;;3.37;1.20;;;7.70;99.90;;;;;;5087997;28;20301;-80
2021/01/22 12:19:11;;;;;;;3.15;1.20;;;7.70;99.90;;;;;;5084047;28;20929;-83
2021/01/22 12:21:37;;;;;;;1.40;1.30;;;7.70;99.90;;;;;;5083930;28;20697;-82
2021/01/22 12:24:05;;;;;;;4.03;2.60;;;7.70;99.90;;;;;;5081360;28;20444;-83
2021/01/22 12:26:31;;;;;;;4.18;3.05;;;7.80;99.90;;;;;;5078531;28;20530;-83
2021/01/22 12:28:57;;;;;;;2.70;2.13;;;8.00;99.90;;;;;;5078555;28;20363;-82
2021/01/22 12:31:24;;;;;;;2.13;2.00;;;8.00;99.90;;;;;;5079400;28;20210;-83
2021/01/22 12:33:51;;;;;;;3.63;1.50;;;8.00;99.90;;;;;;5078719;28;20698;-83
2021/01/22 12:36:17;;;;;;;2.63;1.87;;;8.10;99.90;;;;;;5077736;28;20543;-82
2021/01/22 12:38:43;;;;;;;2.67;1.20;;;8.00;99.90;;;;;;5078370;28;20452;-82
2021/01/22 12:41:10;;;;;;;3.10;1.90;;;7.90;99.90;;;;;;5078212;28;20206;-83
2021/01/22 12:43:36;;;;;;;3.13;1.20;;;8.10;99.90;;;;;;5080559;28;20984;-82
2021/01/22 12:46:03;;;;;;;1.60;1.50;;;8.10;99.90;;;;;;5077922;28;20305;-81
2021/01/22 12:48:30;;;;;;;1.90;1.80;;;7.90;99.90;;;;;;5079656;28;20441;-81
2021/01/22 12:50:57;;;;;;;3.50;2.65;;;7.90;99.90;;;;;;5078727;28;20209;-82
2021/01/22 12:53:23;;;;;;;4.25;1.40;;;7.90;99.90;;;;;;5076854;28;20202;-82
2021/01/22 12:55:50;;;;;;;1.67;1.58;;;7.90;99.90;;;;;;5076819;28;20219;-82
2021/01/22 12:58:16;;;;;;;1.98;1.88;;;7.80;99.90;;;;;;5076777;28;20224;-82
2021/01/22 13:00:42;;;;;;;2.08;1.75;;;7.80;99.90;;;;;;5076897;28;20615;-82
2021/01/22 13:03:10;;;;;;;3.83;1.73;;;7.70;99.90;;;;;;5077034;28;20229;-82
2021/01/22 13:05:37;;;;;;;1.70;1.13;;;7.70;99.90;;;;;;5078583;28;20229;-81
2021/01/22 13:08:04;;;;;;;1.98;1.55;;;7.50;99.90;;;;;;5082403;28;20269;-81
2021/01/22 13:10:30;;;;;;;1.50;1.40;;;7.70;99.90;;;;;;5083871;28;20202;-80
2021/01/22 13:12:57;;;;;;;4.03;1.40;;;7.70;99.90;;;;;;5080632;28;20199;-81
2021/01/22 13:15:24;;;;;;;3.25;2.10;;;7.70;99.90;;;;;;5081514;28;20230;-83
2021/01/22 13:17:50;;;;;;;1.40;1.25;;;7.80;99.90;;;;;;5103118;22;20265;-81
2021/01/22 13:20:17;;;;;;;1.70;1.57;;;7.80;99.90;;;;;;5088155;28;20650;-80
2021/01/22 13:22:46;;;;;;;3.03;2.17;;;7.80;99.90;;;;;;5089599;28;20563;-79
2021/01/22 13:25:13;;;;;;;6.53;2.50;;;7.80;99.90;;;;;;5085383;28;20213;-81
2021/01/22 13:27:39;;;;;;;2.72;1.60;;;7.90;99.90;;;;;;5088258;28;20222;-80
2021/01/22 13:30:09;;;;;;;1.93;1.60;;;7.90;99.90;;;;;;5084796;28;20216;-79
2021/01/22 13:32:38;;;;;;;1.65;1.55;;;7.80;99.90;;;;;;5088213;28;20533;-79
2021/01/22 13:35:05;;;;;;;3.70;1.90;;;7.70;99.90;;;;;;5084135;28;20202;-79
2021/01/22 13:37:32;;;;;;;4.85;1.95;;;7.70;99.90;;;;;;5087195;28;20257;-81
2021/01/22 13:40:01;;;;;;;4.05;1.80;;;7.70;99.90;;;;;;5091231;28;20209;-80
2021/01/22 13:42:30;;;;;;;5.95;2.28;;;7.60;99.90;;;;;;5090857;28;20355;-79
2021/01/22 13:44:57;;;;;;;9.85;3.20;;;7.60;99.90;;;;;;5091207;28;20206;-80
2021/01/22 13:47:24;;;;;;;6.10;2.10;;;7.60;99.90;;;;;;5090117;28;20225;-79
2021/01/22 13:49:50;;;;;;;2.97;1.90;;;7.70;99.90;;;;;;5089583;28;20237;-80
2021/01/22 13:52:17;;;;;;;5.83;2.80;;;7.80;99.90;;;;;;5086999;28;20199;-79
2021/01/22 13:54:46;;;;;;;7.70;2.70;;;7.90;99.90;;;;;;5089541;28;20448;-79
2021/01/22 13:57:15;;;;;;;4.53;2.40;;;7.90;99.90;;;;;;5088883;28;20218;-79
2021/01/22 13:59:42;;;;;;;2.47;1.73;;;7.90;99.90;;;;;;5090387;28;20202;-80
2021/01/22 14:02:09;;;;;;;3.50;2.05;;;7.90;99.90;;;;;;5090583;28;20218;-79
2021/01/22 14:04:38;;;;;;;6.60;1.85;;;7.90;99.90;;;;;;5089943;28;20202;-79
2021/01/22 14:07:05;;;;;;;3.87;1.67;;;7.90;99.90;;;;;;5089273;28;20229;-79